createdAt,value
2022-10-01T00:02:07.396Z,10.70
2022-10-01T00:04:37.613Z,10.70
2022-10-01T00:07:10.916Z,10.70
2022-10-01T00:09:39.404Z,10.70
2022-10-01T00:12:11.192Z,10.70
2022-10-01T00:14:39.563Z,10.70
2022-10-01T00:17:07.680Z,10.70
2022-10-01T00:19:36.760Z,10.70
2022-10-01T00:22:06.218Z,10.70
2022-10-01T00:24:36.585Z,10.70
2022-10-01T00:27:08.861Z,10.60
2022-10-01T00:29:39.771Z,10.60
2022-10-01T00:32:10.898Z,10.60
2022-10-01T00:34:39.008Z,10.60
2022-10-01T00:37:10.403Z,10.60
2022-10-01T00:39:41.545Z,10.60
2022-10-01T00:42:19.228Z,10.60
2022-10-01T00:44:49.938Z,10.60
2022-10-01T00:47:25.992Z,10.50
2022-10-01T00:50:01.316Z,10.60
2022-10-01T00:52:39.242Z,10.60
2022-10-01T00:55:12.114Z,10.50
2022-10-01T00:57:45.229Z,10.50
2022-10-01T01:00:14.920Z,10.50
2022-10-01T01:02:43.571Z,10.50
2022-10-01T01:05:13.681Z,10.60
2022-10-01T01:07:46.459Z,10.50
2022-10-01T01:10:16.167Z,10.50
2022-10-01T01:12:59.570Z,10.50
2022-10-01T01:15:35.403Z,10.50
2022-10-01T01:18:11.785Z,10.50
2022-10-01T01:21:09.194Z,10.50
2022-10-01T01:24:01.885Z,10.50
2022-10-01T01:26:36.418Z,10.50
2022-10-01T01:29:14.767Z,10.50
2022-10-01T01:31:47.182Z,10.50
2022-10-01T01:34:22.824Z,10.60
2022-10-01T01:36:58.618Z,10.50
2022-10-01T01:39:33.053Z,10.60
2022-10-01T01:42:07.132Z,10.60
2022-10-01T01:44:44.091Z,10.60
2022-10-01T01:47:13.864Z,10.60
2022-10-01T01:49:42.926Z,10.60
2022-10-01T01:52:13.520Z,10.60
2022-10-01T01:54:42.426Z,10.60
2022-10-01T01:57:13.160Z,10.60
2022-10-01T01:59:45.119Z,10.60
2022-10-01T02:02:15.064Z,10.60
2022-10-01T02:04:48.108Z,10.60
2022-10-01T02:07:36.479Z,10.60
2022-10-01T02:10:16.832Z,10.60
2022-10-01T02:13:01.516Z,10.60
2022-10-01T02:15:37.568Z,10.60
2022-10-01T02:18:12.983Z,10.70
2022-10-01T02:20:45.805Z,10.70
2022-10-01T02:23:19.231Z,10.70
2022-10-01T02:25:53.314Z,10.70
2022-10-01T02:28:27.205Z,10.70
2022-10-01T02:31:00.941Z,10.70
2022-10-01T02:33:32.618Z,10.70
2022-10-01T02:36:02.274Z,10.70
2022-10-01T02:38:31.172Z,10.70
2022-10-01T02:41:07.228Z,10.70
2022-10-01T02:43:42.934Z,10.70
2022-10-01T02:46:21.867Z,10.70
2022-10-01T02:48:51.290Z,10.70
2022-10-01T02:51:31.134Z,10.70
2022-10-01T02:54:04.330Z,10.70
2022-10-01T02:56:52.314Z,10.70
2022-10-01T02:59:23.732Z,10.70
2022-10-01T03:01:55.996Z,10.70
2022-10-01T03:04:24.278Z,10.80
2022-10-01T03:06:52.344Z,10.80
2022-10-01T03:09:20.427Z,10.80
2022-10-01T03:11:48.508Z,10.80
2022-10-01T03:14:16.531Z,10.80
2022-10-01T03:16:44.630Z,10.80
2022-10-01T03:19:14.359Z,10.80
2022-10-01T03:21:42.459Z,10.80
2022-10-01T03:24:10.572Z,10.80
2022-10-01T03:26:42.010Z,10.80
2022-10-01T03:29:10.110Z,10.80
2022-10-01T03:31:39.299Z,10.80
2022-10-01T03:34:07.495Z,10.80
2022-10-01T03:36:37.815Z,10.90
2022-10-01T03:39:06.137Z,10.90
2022-10-01T03:41:35.517Z,10.80
2022-10-01T03:44:03.984Z,10.80
2022-10-01T03:46:32.354Z,10.80
2022-10-01T03:49:00.886Z,10.80
2022-10-01T03:51:29.466Z,10.80
2022-10-01T03:53:59.623Z,10.80
2022-10-01T03:56:27.898Z,10.70
2022-10-01T03:58:56.031Z,10.70
2022-10-01T04:01:24.337Z,10.70
2022-10-01T04:03:55.728Z,10.70
2022-10-01T04:06:23.844Z,10.70
2022-10-01T04:08:51.885Z,10.70
2022-10-01T04:11:21.707Z,10.70
2022-10-01T04:13:49.774Z,10.70
2022-10-01T04:16:21.883Z,10.60
2022-10-01T04:18:49.979Z,10.60
2022-10-01T04:21:19.145Z,10.60
2022-10-01T04:23:47.280Z,10.50
2022-10-01T04:26:17.489Z,10.50
2022-10-01T04:28:47.551Z,10.50
2022-10-01T04:31:34.680Z,10.50
2022-10-01T04:34:05.735Z,10.50
2022-10-01T04:36:33.845Z,10.50
2022-10-01T04:39:04.254Z,10.50
2022-10-01T04:41:32.895Z,10.50
2022-10-01T04:44:02.837Z,10.50
2022-10-01T04:46:31.955Z,10.50
2022-10-01T04:49:04.243Z,10.50
2022-10-01T04:51:32.465Z,10.50
2022-10-01T04:54:00.859Z,10.40
2022-10-01T04:56:28.955Z,10.40
2022-10-01T04:58:59.162Z,10.40
2022-10-01T05:01:28.629Z,10.40
2022-10-01T05:03:56.763Z,10.40
2022-10-01T05:06:24.842Z,10.40
2022-10-01T05:08:53.147Z,10.40
2022-10-01T05:11:21.234Z,10.30
2022-10-01T05:13:49.305Z,10.30
2022-10-01T05:16:20.594Z,10.30
2022-10-01T05:18:50.170Z,10.30
2022-10-01T05:21:18.246Z,10.30
2022-10-01T05:23:49.298Z,10.30
2022-10-01T05:26:17.403Z,10.30
2022-10-01T05:28:45.440Z,10.30
2022-10-01T05:31:16.331Z,10.30
2022-10-01T05:33:44.460Z,10.30
2022-10-01T05:36:13.879Z,10.30
2022-10-01T05:38:44.401Z,10.30
2022-10-01T05:41:12.475Z,10.30
2022-10-01T05:43:40.546Z,10.30
2022-10-01T05:46:10.370Z,10.30
2022-10-01T05:48:38.572Z,10.30
2022-10-01T05:51:08.317Z,10.30
2022-10-01T05:53:38.526Z,10.30
2022-10-01T05:56:07.148Z,10.30
2022-10-01T05:58:37.946Z,10.30
2022-10-01T06:01:06.106Z,10.30
2022-10-01T06:03:36.064Z,10.30
2022-10-01T06:06:07.935Z,10.30
2022-10-01T06:08:38.718Z,10.30
2022-10-01T06:11:08.916Z,10.30
2022-10-01T06:13:45.130Z,10.30
2022-10-01T06:16:13.609Z,10.30
2022-10-01T06:18:42.434Z,10.30
2022-10-01T06:21:11.031Z,10.30
2022-10-01T06:23:40.467Z,10.30
2022-10-01T06:26:08.787Z,10.30
2022-10-01T06:28:36.843Z,10.30
2022-10-01T06:31:05.826Z,10.30
2022-10-01T06:33:34.080Z,10.30
2022-10-01T06:36:05.536Z,10.30
2022-10-01T06:38:36.786Z,10.30
2022-10-01T06:41:06.359Z,10.30
2022-10-01T06:43:34.490Z,10.30
2022-10-01T06:46:03.871Z,10.30
2022-10-01T06:48:35.951Z,10.30
2022-10-01T06:51:08.576Z,10.30
2022-10-01T06:53:37.611Z,10.30
2022-10-01T06:56:15.887Z,10.30
2022-10-01T06:58:43.904Z,10.30
2022-10-01T07:01:14.373Z,10.30
2022-10-01T07:03:42.420Z,10.30
2022-10-01T07:06:12.462Z,10.30
2022-10-01T07:08:40.512Z,10.30
2022-10-01T07:11:09.963Z,10.30
2022-10-01T07:13:40.127Z,10.40
2022-10-01T07:16:08.206Z,10.40
2022-10-01T07:18:41.975Z,10.40
2022-10-01T07:21:13.030Z,10.30
2022-10-01T07:23:41.099Z,10.40
2022-10-01T07:26:11.117Z,10.40
2022-10-01T07:28:39.189Z,10.40
2022-10-01T07:31:11.236Z,10.30
2022-10-01T07:33:39.364Z,10.40
2022-10-01T07:36:09.363Z,10.40
2022-10-01T07:38:37.893Z,10.40
2022-10-01T07:41:11.051Z,10.40
2022-10-01T07:43:41.471Z,10.40
2022-10-01T07:46:09.543Z,10.40
2022-10-01T07:48:37.657Z,10.40
2022-10-01T07:51:06.031Z,10.40
2022-10-01T07:53:34.071Z,10.40
2022-10-01T07:56:03.162Z,10.40
2022-10-01T07:58:32.551Z,10.50
2022-10-01T08:01:05.501Z,10.50
2022-10-01T08:03:33.588Z,10.50
2022-10-01T08:06:03.396Z,10.50
2022-10-01T08:08:34.628Z,10.50
2022-10-01T08:11:03.867Z,10.50
2022-10-01T08:13:36.613Z,10.50
2022-10-01T08:16:12.581Z,10.60
2022-10-01T08:18:41.646Z,10.50
2022-10-01T08:21:09.779Z,10.60
2022-10-01T08:23:37.871Z,10.60
2022-10-01T08:26:08.641Z,10.60
2022-10-01T08:28:38.023Z,10.60
2022-10-01T08:31:09.417Z,10.60
2022-10-01T08:33:40.787Z,10.60
2022-10-01T08:36:09.368Z,10.60
2022-10-01T08:38:41.208Z,10.60
2022-10-01T08:41:27.018Z,10.60
2022-10-01T08:43:59.369Z,10.60
2022-10-01T08:46:38.217Z,10.60
2022-10-01T08:49:14.908Z,10.60
2022-10-01T08:51:49.337Z,10.60
2022-10-01T08:54:35.283Z,10.60
2022-10-01T08:57:12.702Z,10.70
2022-10-01T08:59:44.696Z,10.60
2022-10-01T09:02:20.697Z,10.70
2022-10-01T09:05:00.321Z,10.70
2022-10-01T09:08:04.061Z,10.70
2022-10-01T09:10:44.377Z,10.70
2022-10-01T09:13:50.210Z,10.70
2022-10-01T09:16:26.952Z,10.70
2022-10-01T09:19:11.730Z,10.80
2022-10-01T09:21:52.435Z,10.80
2022-10-01T09:24:30.569Z,10.80
2022-10-01T09:27:01.867Z,10.90
2022-10-01T09:29:45.287Z,10.90
2022-10-01T09:32:21.587Z,10.90
2022-10-01T09:34:54.860Z,10.90
2022-10-01T09:37:32.699Z,11.00
2022-10-01T09:40:14.912Z,11.10
2022-10-01T09:42:43.952Z,11.10
2022-10-01T09:45:13.323Z,11.20
2022-10-01T09:47:44.886Z,11.20
2022-10-01T09:50:17.997Z,11.30
2022-10-01T09:52:52.511Z,11.40
2022-10-01T09:55:31.697Z,11.50
2022-10-01T09:58:04.392Z,11.60
2022-10-01T10:00:32.962Z,11.60
2022-10-01T10:03:02.488Z,11.70
2022-10-01T10:05:42.156Z,11.80
2022-10-01T10:08:15.314Z,11.80
2022-10-01T10:10:51.889Z,11.90
2022-10-01T10:13:26.600Z,12.00
2022-10-01T10:15:58.500Z,12.00
2022-10-01T10:18:33.994Z,12.10
2022-10-01T10:21:09.011Z,12.20
2022-10-01T10:23:48.605Z,12.30
2022-10-01T10:26:21.829Z,12.40
2022-10-01T10:28:49.865Z,12.50
2022-10-01T10:31:24.588Z,12.70
2022-10-01T10:34:02.391Z,12.80
2022-10-01T10:36:34.000Z,12.90
2022-10-01T10:39:04.372Z,12.90
2022-10-01T10:41:33.487Z,13.00
2022-10-01T10:44:04.764Z,13.10
2022-10-01T10:46:42.805Z,13.20
2022-10-01T10:49:22.393Z,13.30
2022-10-01T10:51:54.084Z,13.40
2022-10-01T10:54:29.441Z,13.50
2022-10-01T10:57:05.318Z,13.60
2022-10-01T10:59:34.806Z,13.70
2022-10-01T11:02:07.646Z,13.70
2022-10-01T11:04:47.062Z,13.80
2022-10-01T11:07:21.423Z,13.90
2022-10-01T11:10:23.054Z,14.00
2022-10-01T11:13:24.619Z,14.20
2022-10-01T11:16:08.789Z,14.30
2022-10-01T11:19:03.388Z,14.40
2022-10-01T11:22:00.102Z,14.50
2022-10-01T11:24:52.438Z,14.70
2022-10-01T11:27:27.465Z,14.80
2022-10-01T11:30:04.476Z,14.90
2022-10-01T11:32:46.080Z,15.10
2022-10-01T11:35:40.090Z,15.10
2022-10-01T11:38:45.597Z,15.30
2022-10-01T11:41:29.853Z,15.40
2022-10-01T11:44:01.971Z,15.50
2022-10-01T11:46:40.211Z,15.60
2022-10-01T11:49:36.167Z,15.60
2022-10-01T11:52:11.634Z,15.50
2022-10-01T11:54:57.209Z,15.60
2022-10-01T11:57:45.355Z,15.70
2022-10-01T12:00:16.596Z,15.80
2022-10-01T12:02:53.904Z,15.90
2022-10-01T12:05:26.732Z,15.90
2022-10-01T12:08:00.074Z,15.90
2022-10-01T12:10:39.572Z,15.90
2022-10-01T12:13:22.389Z,15.90
2022-10-01T12:15:57.480Z,15.80
2022-10-01T12:18:33.001Z,15.70
2022-10-01T12:21:04.283Z,15.70
2022-10-01T12:23:37.132Z,15.70
2022-10-01T12:26:17.384Z,15.60
2022-10-01T12:29:00.138Z,15.70
2022-10-01T12:31:39.564Z,15.70
2022-10-01T12:34:17.881Z,15.70
2022-10-01T12:36:55.805Z,15.70
2022-10-01T12:39:44.998Z,15.70
2022-10-01T12:42:31.337Z,15.70
2022-10-01T12:45:10.485Z,15.70
2022-10-01T12:47:46.979Z,15.60
2022-10-01T12:50:26.693Z,15.40
2022-10-01T12:53:10.427Z,15.30
2022-10-01T12:56:00.489Z,15.10
2022-10-01T12:59:06.240Z,14.90
2022-10-01T13:01:57.297Z,14.70
2022-10-01T13:04:42.289Z,14.60
2022-10-01T13:07:40.793Z,14.50
2022-10-01T13:10:19.368Z,14.40
2022-10-01T13:13:00.145Z,14.30
2022-10-01T13:15:32.767Z,14.20
2022-10-01T13:18:12.662Z,14.20
2022-10-01T13:20:54.098Z,14.20
2022-10-01T13:23:28.518Z,14.20
2022-10-01T13:26:05.591Z,14.30
2022-10-01T13:28:48.813Z,14.30
2022-10-01T13:31:21.009Z,14.30
2022-10-01T13:33:59.205Z,14.40
2022-10-01T13:36:34.261Z,14.40
2022-10-01T13:39:02.529Z,14.40
2022-10-01T13:41:33.143Z,14.40
2022-10-01T13:44:22.867Z,14.40
2022-10-01T13:47:00.615Z,14.40
2022-10-01T13:49:31.979Z,14.50
2022-10-01T13:52:02.183Z,14.60
2022-10-01T13:54:39.861Z,14.60
2022-10-01T13:57:25.896Z,14.60
2022-10-01T14:00:00.532Z,14.60
2022-10-01T14:02:40.567Z,14.60
2022-10-01T14:05:31.370Z,14.60
2022-10-01T14:08:11.844Z,14.60
2022-10-01T14:11:06.190Z,14.70
2022-10-01T14:14:00.881Z,14.70
2022-10-01T14:16:34.167Z,14.80
2022-10-01T14:19:03.731Z,14.80
2022-10-01T14:21:52.353Z,14.80
2022-10-01T14:24:32.530Z,14.70
2022-10-01T14:27:10.073Z,14.70
2022-10-01T14:29:53.825Z,14.70
2022-10-01T14:32:33.953Z,14.70
2022-10-01T14:35:20.615Z,14.70
2022-10-01T14:37:51.001Z,14.70
2022-10-01T14:40:24.230Z,14.70
2022-10-01T14:42:59.984Z,14.80
2022-10-01T14:45:28.516Z,14.80
2022-10-01T14:48:03.207Z,14.80
2022-10-01T14:50:36.125Z,14.90
2022-10-01T14:53:06.673Z,14.90
2022-10-01T14:55:36.786Z,14.90
2022-10-01T14:58:06.046Z,14.90
2022-10-01T15:00:34.820Z,14.90
2022-10-01T15:03:18.305Z,14.90
2022-10-01T15:05:48.371Z,15.00
2022-10-01T15:08:20.794Z,15.10
2022-10-01T15:10:53.956Z,15.10
2022-10-01T15:13:27.836Z,15.10
2022-10-01T15:15:56.987Z,15.10
2022-10-01T15:18:29.189Z,15.10
2022-10-01T15:20:59.664Z,15.10
2022-10-01T15:23:30.166Z,15.10
2022-10-01T15:26:01.593Z,15.00
2022-10-01T15:28:32.876Z,15.00
2022-10-01T15:31:05.216Z,14.90
2022-10-01T15:33:36.196Z,14.90
2022-10-01T15:36:06.802Z,14.80
2022-10-01T15:38:37.144Z,14.80
2022-10-01T15:41:29.909Z,14.80
2022-10-01T15:43:56.040Z,14.80
2022-10-01T15:46:35.408Z,14.80
2022-10-01T15:49:18.126Z,14.80
2022-10-01T15:52:12.305Z,14.80
2022-10-01T15:54:44.517Z,14.80
2022-10-01T15:57:19.659Z,14.80
2022-10-01T15:59:51.363Z,14.80
2022-10-01T16:02:24.285Z,14.80
2022-10-01T16:04:56.742Z,14.70
2022-10-01T16:07:30.599Z,14.70
2022-10-01T16:10:13.149Z,14.70
2022-10-01T16:12:42.273Z,14.60
2022-10-01T16:15:30.030Z,14.60
2022-10-01T16:17:59.161Z,14.50
2022-10-01T16:20:38.819Z,14.50
2022-10-01T16:23:45.156Z,14.40
2022-10-01T16:26:38.483Z,14.40
2022-10-01T16:29:29.050Z,14.30
2022-10-01T16:31:57.465Z,14.30
2022-10-01T16:34:27.874Z,14.20
2022-10-01T16:36:55.944Z,14.20
2022-10-01T16:39:24.498Z,14.20
2022-10-01T16:42:19.137Z,14.10
2022-10-01T16:44:44.224Z,14.10
2022-10-01T16:47:13.408Z,14.10
2022-10-01T16:49:42.034Z,14.10
2022-10-01T16:52:15.491Z,14.00
2022-10-01T16:54:44.840Z,14.00
2022-10-01T16:57:15.265Z,13.90
2022-10-01T16:59:43.984Z,13.90
2022-10-01T17:02:14.055Z,13.90
2022-10-01T17:04:42.637Z,13.80
2022-10-01T17:07:13.148Z,13.80
2022-10-01T17:09:41.207Z,13.80
2022-10-01T17:12:10.675Z,13.70
2022-10-01T17:14:42.874Z,13.70
2022-10-01T17:17:10.985Z,13.70
2022-10-01T17:19:39.029Z,13.70
2022-10-01T17:22:07.149Z,13.60
2022-10-01T17:24:37.234Z,13.60
2022-10-01T17:27:05.403Z,13.60
2022-10-01T17:29:33.611Z,13.50
2022-10-01T17:32:03.091Z,13.50
2022-10-01T17:34:31.180Z,13.50
2022-10-01T17:37:00.276Z,13.50
2022-10-01T17:39:32.819Z,13.50
2022-10-01T17:42:00.877Z,13.40
2022-10-01T17:44:28.964Z,13.40
2022-10-01T17:46:57.053Z,13.30
2022-10-01T17:49:26.477Z,13.30
2022-10-01T17:51:56.957Z,13.20
2022-10-01T17:54:25.575Z,13.20
2022-10-01T17:56:53.770Z,13.10
2022-10-01T17:59:22.243Z,13.10
2022-10-01T18:01:52.680Z,13.10
2022-10-01T18:04:20.710Z,13.10
2022-10-01T18:06:52.173Z,13.00
2022-10-01T18:09:20.410Z,13.00
2022-10-01T18:11:51.121Z,12.90
2022-10-01T18:14:19.220Z,12.90
2022-10-01T18:16:47.287Z,12.80
2022-10-01T18:22:13.829Z,12.70
2022-10-01T18:24:42.172Z,12.70
2022-10-01T18:27:11.285Z,12.60
2022-10-01T18:29:42.786Z,12.50
2022-10-01T18:32:21.730Z,12.50
2022-10-01T18:34:55.691Z,12.50
2022-10-01T18:37:37.750Z,12.50
2022-10-01T18:40:13.549Z,12.40
2022-10-01T18:42:48.100Z,12.40
2022-10-01T18:45:18.248Z,12.40
2022-10-01T18:48:04.097Z,12.30
2022-10-01T18:50:43.930Z,12.30
2022-10-01T18:53:56.666Z,12.30
2022-10-01T18:56:41.759Z,12.30
2022-10-01T18:59:32.362Z,12.30
2022-10-01T19:02:19.302Z,12.30
2022-10-01T19:05:29.634Z,12.30
2022-10-01T19:08:10.858Z,12.30
2022-10-01T19:10:42.633Z,12.30
2022-10-01T19:13:20.460Z,12.30
2022-10-01T19:15:59.138Z,12.30
2022-10-01T19:18:48.572Z,12.30
2022-10-01T19:21:28.658Z,12.30
2022-10-01T19:28:02.048Z,12.30
2022-10-01T19:30:46.017Z,12.30
2022-10-01T19:33:18.149Z,12.30
2022-10-01T19:35:51.397Z,12.30
2022-10-01T19:38:25.176Z,12.30
2022-10-01T19:41:01.106Z,12.30
2022-10-01T19:43:34.567Z,12.30
2022-10-01T19:46:09.113Z,12.20
2022-10-01T19:48:45.137Z,12.20
2022-10-01T19:51:21.918Z,12.20
2022-10-01T19:53:59.966Z,12.20
2022-10-01T19:56:31.064Z,12.10
2022-10-01T19:59:08.495Z,12.10
2022-10-01T20:01:40.239Z,12.10
2022-10-01T20:04:15.645Z,12.10
2022-10-01T20:06:47.232Z,12.10
2022-10-01T20:09:29.646Z,12.10
2022-10-01T20:12:09.747Z,12.10
2022-10-01T20:15:09.739Z,12.10
2022-10-01T20:17:52.091Z,12.10
2022-10-01T20:20:30.573Z,12.10
2022-10-01T20:23:11.378Z,12.10
2022-10-01T20:25:46.772Z,12.10
2022-10-01T20:28:21.087Z,12.10
2022-10-01T20:30:59.219Z,12.10
2022-10-01T20:33:34.384Z,12.10
2022-10-01T20:36:11.852Z,12.10
2022-10-01T20:38:47.903Z,12.00
2022-10-01T20:41:19.941Z,12.00
2022-10-01T20:43:50.187Z,12.00
2022-10-01T20:46:38.042Z,12.00
2022-10-01T20:49:19.115Z,11.90
2022-10-01T20:51:57.002Z,11.90
2022-10-01T20:54:31.465Z,11.90
2022-10-01T20:57:09.812Z,11.90
2022-10-01T20:59:42.127Z,11.80
2022-10-01T21:02:29.729Z,11.80
2022-10-01T21:05:04.166Z,11.80
2022-10-01T21:07:39.084Z,11.80
2022-10-01T21:10:18.285Z,11.80
2022-10-01T21:12:53.546Z,11.80
2022-10-01T21:15:24.864Z,11.80
2022-10-01T21:18:02.132Z,11.90
2022-10-01T21:20:50.915Z,11.90
2022-10-01T21:23:32.518Z,11.90
2022-10-01T21:26:15.171Z,11.90
2022-10-01T21:29:08.576Z,11.90
2022-10-01T21:31:46.007Z,12.00
2022-10-01T21:34:23.386Z,12.00
2022-10-01T21:37:05.131Z,12.00
2022-10-01T21:39:36.711Z,12.00
2022-10-01T21:42:15.833Z,12.00
2022-10-01T21:45:17.622Z,11.90
2022-10-01T21:48:14.179Z,11.90
2022-10-01T21:50:56.016Z,11.90
2022-10-01T21:54:01.769Z,11.80
2022-10-01T21:56:55.005Z,11.80
2022-10-01T21:59:56.801Z,11.70
2022-10-01T22:02:35.801Z,11.70
2022-10-01T22:05:12.629Z,11.70
2022-10-01T22:07:51.934Z,11.70
2022-10-01T22:10:24.142Z,11.70
2022-10-01T22:12:58.703Z,11.70
2022-10-01T22:15:36.572Z,11.70
2022-10-01T22:18:07.222Z,11.70
2022-10-01T22:20:42.996Z,11.70
2022-10-01T22:23:18.241Z,11.70
2022-10-01T22:25:53.785Z,11.70
2022-10-01T22:28:26.251Z,11.70
2022-10-01T22:30:57.227Z,11.80
2022-10-01T22:33:32.407Z,11.70
2022-10-01T22:36:07.732Z,11.70
2022-10-01T22:38:43.438Z,11.70
2022-10-01T22:41:21.521Z,11.70
2022-10-01T22:43:52.607Z,11.70
2022-10-01T22:46:43.811Z,11.70
2022-10-01T22:49:25.765Z,11.60
2022-10-01T22:52:14.745Z,11.60
2022-10-01T22:55:03.099Z,11.60
2022-10-01T22:57:54.215Z,11.60
2022-10-01T23:00:22.357Z,11.60
2022-10-01T23:03:07.929Z,11.60
2022-10-01T23:05:45.958Z,11.60
2022-10-01T23:08:22.857Z,11.60
2022-10-01T23:11:01.105Z,11.50
2022-10-01T23:13:37.987Z,11.50
2022-10-01T23:16:15.206Z,11.50
2022-10-01T23:18:49.531Z,11.50
2022-10-01T23:21:28.722Z,11.40
2022-10-01T23:24:09.826Z,11.40
2022-10-01T23:26:48.713Z,11.40
2022-10-01T23:29:44.631Z,11.40
2022-10-01T23:32:29.295Z,11.40
2022-10-01T23:35:05.362Z,11.30
2022-10-01T23:38:02.328Z,11.30
2022-10-01T23:40:35.628Z,11.30
2022-10-01T23:43:10.977Z,11.20
2022-10-01T23:45:47.901Z,11.20
2022-10-01T23:48:22.131Z,11.30
2022-10-01T23:50:59.478Z,11.30
2022-10-01T23:53:35.826Z,11.30
2022-10-01T23:56:24.567Z,11.30
2022-10-01T23:59:01.671Z,11.30
